createdAt,value
2023-05-20T00:00:27.398Z,101869.22
2023-05-20T00:02:55.044Z,101871.34
2023-05-20T00:05:22.660Z,101861.09
2023-05-20T00:07:50.298Z,101856.22
2023-05-20T00:10:18.000Z,101859.44
2023-05-20T00:12:45.537Z,101849.00
2023-05-20T00:15:12.976Z,101851.53
2023-05-20T00:17:40.609Z,101856.59
2023-05-20T00:20:08.617Z,101854.69
2023-05-20T00:22:36.171Z,101842.34
2023-05-20T00:25:03.773Z,101845.63
2023-05-20T00:27:31.319Z,101848.06
2023-05-20T00:29:59.096Z,101846.97
2023-05-20T00:32:26.962Z,101847.84
2023-05-20T00:35:01.728Z,101841.53
2023-05-20T00:37:29.502Z,101853.06
2023-05-20T00:39:57.020Z,101855.34
2023-05-20T00:42:29.327Z,101852.00
2023-05-20T00:44:57.007Z,101844.94
2023-05-20T00:47:26.916Z,101850.25
2023-05-20T00:49:54.572Z,101843.06
2023-05-20T00:52:22.836Z,101844.97
2023-05-20T00:54:51.637Z,101843.13
2023-05-20T00:57:20.513Z,101842.06
2023-05-20T00:59:48.041Z,101826.56
2023-05-20T01:02:16.184Z,101824.72
2023-05-20T01:04:47.309Z,101820.09
2023-05-20T01:07:19.506Z,101817.13
2023-05-20T01:09:47.364Z,101813.22
2023-05-20T01:12:26.445Z,101805.50
2023-05-20T01:15:01.995Z,101805.44
2023-05-20T01:17:38.114Z,101805.25
2023-05-20T01:20:10.398Z,101800.06
2023-05-20T01:22:53.850Z,101802.69
2023-05-20T01:25:22.266Z,101798.19
2023-05-20T01:27:51.796Z,101794.63
2023-05-20T01:30:19.578Z,101790.16
2023-05-20T01:32:54.213Z,101791.09
2023-05-20T01:35:23.677Z,101786.94
2023-05-20T01:37:53.093Z,101784.22
2023-05-20T01:40:22.273Z,101785.13
2023-05-20T01:42:53.549Z,101788.53
2023-05-20T01:45:23.593Z,101788.59
2023-05-20T01:47:51.374Z,101782.41
2023-05-20T01:50:18.987Z,101779.53
2023-05-20T01:52:46.638Z,101777.03
2023-05-20T01:55:14.746Z,101771.22
2023-05-20T01:57:42.727Z,101780.66
2023-05-20T02:00:11.495Z,101775.59
2023-05-20T02:02:41.746Z,101780.66
2023-05-20T02:05:12.103Z,101782.16
2023-05-20T02:07:39.813Z,101778.56
2023-05-20T02:10:07.754Z,101776.03
2023-05-20T02:12:35.399Z,101778.72
2023-05-20T02:15:03.079Z,101782.19
2023-05-20T02:17:31.446Z,101777.91
2023-05-20T02:19:59.069Z,101777.97
2023-05-20T02:22:27.184Z,101785.84
2023-05-20T02:24:54.460Z,101787.28
2023-05-20T02:27:21.857Z,101782.69
2023-05-20T02:29:49.146Z,101779.25
2023-05-20T02:32:20.761Z,101778.47
2023-05-20T02:34:48.245Z,101779.53
2023-05-20T02:37:15.579Z,101774.34
2023-05-20T02:39:43.007Z,101769.75
2023-05-20T02:42:10.413Z,101775.03
2023-05-20T02:44:38.604Z,101760.03
2023-05-20T02:47:06.327Z,101760.09
2023-05-20T02:49:33.895Z,101760.03
2023-05-20T02:52:02.569Z,101762.44
2023-05-20T02:54:30.118Z,101755.72
2023-05-20T02:56:57.725Z,101754.22
2023-05-20T02:59:25.195Z,101756.88
2023-05-20T03:01:52.629Z,101756.66
2023-05-20T03:04:21.948Z,101759.78
2023-05-20T03:06:49.561Z,101753.13
2023-05-20T03:09:17.159Z,101751.38
2023-05-20T03:11:45.070Z,101754.19
2023-05-20T03:14:12.571Z,101753.78
2023-05-20T03:16:40.503Z,101751.63
2023-05-20T03:19:08.243Z,101748.78
2023-05-20T03:21:36.358Z,101745.47
2023-05-20T03:24:04.059Z,101741.69
2023-05-20T03:26:33.354Z,101732.06
2023-05-20T03:29:00.965Z,101731.13
2023-05-20T03:31:28.446Z,101727.50
2023-05-20T03:33:56.180Z,101728.75
2023-05-20T03:36:23.529Z,101727.59
2023-05-20T03:38:51.331Z,101726.09
2023-05-20T03:41:18.925Z,101723.66
2023-05-20T03:43:46.655Z,101718.81
2023-05-20T03:46:14.205Z,101723.38
2023-05-20T03:48:42.080Z,101725.19
2023-05-20T03:51:09.538Z,101718.84
2023-05-20T03:53:37.086Z,101715.84
2023-05-20T03:56:04.930Z,101716.59
2023-05-20T03:58:32.784Z,101713.56
2023-05-20T04:01:00.195Z,101723.06
2023-05-20T04:03:29.113Z,101719.47
2023-05-20T04:05:56.655Z,101716.94
2023-05-20T04:08:26.127Z,101714.34
2023-05-20T04:10:57.662Z,101719.25
2023-05-20T04:13:25.980Z,101718.25
2023-05-20T04:15:53.556Z,101716.22
2023-05-20T04:18:21.438Z,101713.00
2023-05-20T04:20:48.939Z,101713.16
2023-05-20T04:23:17.070Z,101718.97
2023-05-20T04:25:44.902Z,101711.66
2023-05-20T04:28:16.403Z,101706.66
2023-05-20T04:30:45.349Z,101712.03
2023-05-20T04:33:14.971Z,101716.94
2023-05-20T04:35:44.349Z,101713.94
2023-05-20T04:38:12.007Z,101715.88
2023-05-20T04:40:40.255Z,101708.75
2023-05-20T04:43:08.116Z,101709.94
2023-05-20T04:45:36.823Z,101709.94
2023-05-20T04:48:06.186Z,101708.03
2023-05-20T04:50:38.002Z,101702.72
2023-05-20T04:53:08.943Z,101703.72
2023-05-20T04:55:37.543Z,101698.94
2023-05-20T04:58:05.034Z,101702.81
2023-05-20T05:00:32.766Z,101704.69
2023-05-20T05:03:01.425Z,101702.06
2023-05-20T05:05:28.977Z,101699.63
2023-05-20T05:07:56.283Z,101699.56
2023-05-20T05:10:25.306Z,101700.59
2023-05-20T05:12:52.926Z,101694.69
2023-05-20T05:15:20.623Z,101698.81
2023-05-20T05:17:48.284Z,101693.16
2023-05-20T05:20:16.593Z,101693.09
2023-05-20T05:22:45.009Z,101698.31
2023-05-20T05:25:13.792Z,101696.88
2023-05-20T05:27:43.056Z,101706.00
2023-05-20T05:30:10.942Z,101703.09
2023-05-20T05:32:38.890Z,101695.38
2023-05-20T05:35:08.252Z,101694.00
2023-05-20T05:37:36.198Z,101695.84
2023-05-20T05:40:05.368Z,101699.63
2023-05-20T05:42:32.938Z,101691.22
2023-05-20T05:45:01.601Z,101693.34
2023-05-20T05:47:32.687Z,101695.94
2023-05-20T05:50:01.115Z,101700.00
2023-05-20T05:52:36.152Z,101694.91
2023-05-20T05:55:05.238Z,101698.44
2023-05-20T05:57:32.830Z,101690.78
2023-05-20T06:00:01.819Z,101683.19
2023-05-20T06:02:36.525Z,101681.25
2023-05-20T06:05:05.353Z,101680.38
2023-05-20T06:07:33.811Z,101693.63
2023-05-20T06:10:02.085Z,101692.84
2023-05-20T06:12:29.560Z,101702.50
2023-05-20T06:14:57.102Z,101693.91
2023-05-20T06:17:24.654Z,101703.84
2023-05-20T06:19:52.256Z,101691.69
2023-05-20T06:22:19.889Z,101695.78
2023-05-20T06:24:47.686Z,101689.03
2023-05-20T06:27:15.151Z,101680.16
2023-05-20T06:29:43.896Z,101682.03
2023-05-20T06:32:11.998Z,101678.50
2023-05-20T06:34:41.118Z,101681.19
2023-05-20T06:37:08.613Z,101675.03
2023-05-20T06:39:36.521Z,101675.78
2023-05-20T06:42:04.134Z,101676.75
2023-05-20T06:44:36.130Z,101675.91
2023-05-20T06:47:17.892Z,101675.91
2023-05-20T06:49:47.788Z,101676.75
2023-05-20T06:52:16.496Z,101673.94
2023-05-20T06:54:43.988Z,101677.47
2023-05-20T06:57:12.263Z,101684.25
2023-05-20T06:59:41.790Z,101669.22
2023-05-20T07:02:09.814Z,101672.91
2023-05-20T07:04:38.392Z,101661.66
2023-05-20T07:07:06.025Z,101669.72
2023-05-20T07:09:33.569Z,101674.16
2023-05-20T07:12:02.074Z,101665.41
2023-05-20T07:14:29.786Z,101654.75
2023-05-20T07:16:57.275Z,101656.50
2023-05-20T07:19:25.090Z,101661.84
2023-05-20T07:21:52.682Z,101667.13
2023-05-20T07:24:42.883Z,101654.81
2023-05-20T07:27:10.866Z,101657.44
2023-05-20T07:29:38.894Z,101661.84
2023-05-20T07:32:08.811Z,101661.53
2023-05-20T07:34:36.715Z,101666.38
2023-05-20T07:37:04.283Z,101653.78
2023-05-20T07:39:41.847Z,101652.16
2023-05-20T07:42:12.501Z,101659.22
2023-05-20T07:44:44.063Z,101654.78
2023-05-20T07:47:11.878Z,101653.72
2023-05-20T07:49:39.749Z,101644.63
2023-05-20T07:52:08.128Z,101641.06
2023-05-20T07:54:35.831Z,101633.34
2023-05-20T07:57:04.082Z,101634.59
2023-05-20T07:59:32.045Z,101629.28
2023-05-20T08:01:59.752Z,101639.09
2023-05-20T08:04:27.853Z,101627.38
2023-05-20T08:06:56.976Z,101634.44
2023-05-20T08:09:47.035Z,101637.50
2023-05-20T08:12:14.714Z,101634.25
2023-05-20T08:14:42.200Z,101631.66
2023-05-20T08:17:10.221Z,101641.19
2023-05-20T08:19:37.850Z,101626.66
2023-05-20T08:22:06.457Z,101636.63
2023-05-20T08:24:33.956Z,101633.66
2023-05-20T08:27:01.444Z,101633.50
2023-05-20T08:29:29.398Z,101629.91
2023-05-20T08:31:58.426Z,101634.00
2023-05-20T08:34:27.230Z,101633.13
2023-05-20T08:36:54.828Z,101640.19
2023-05-20T08:39:22.327Z,101628.56
2023-05-20T08:41:51.130Z,101620.88
2023-05-20T08:44:19.618Z,101620.00
2023-05-20T08:46:48.882Z,101622.28
2023-05-20T08:49:16.751Z,101627.75
2023-05-20T08:51:46.373Z,101616.09
2023-05-20T08:54:16.961Z,101614.59
2023-05-20T08:56:45.069Z,101614.13
2023-05-20T08:59:12.711Z,101618.91
2023-05-20T09:01:44.175Z,101624.75
2023-05-20T09:04:12.036Z,101625.06
2023-05-20T09:06:47.035Z,101623.41
2023-05-20T09:09:15.064Z,101613.41
2023-05-20T09:11:43.097Z,101613.38
2023-05-20T09:14:10.850Z,101605.72
2023-05-20T09:16:41.164Z,101609.69
2023-05-20T09:19:09.980Z,101595.69
2023-05-20T09:21:39.140Z,101590.38
2023-05-20T09:24:07.333Z,101589.75
2023-05-20T09:26:34.852Z,101594.94
2023-05-20T09:29:02.337Z,101595.41
2023-05-20T09:31:35.882Z,101592.00
2023-05-20T09:34:03.649Z,101590.00
2023-05-20T09:36:35.031Z,101585.84
2023-05-20T09:39:05.394Z,101577.81
2023-05-20T09:41:45.141Z,101577.91
2023-05-20T09:44:13.226Z,101577.69
2023-05-20T09:46:41.605Z,101581.78
2023-05-20T09:49:10.303Z,101581.72
2023-05-20T09:51:38.062Z,101571.47
2023-05-20T09:54:08.531Z,101578.56
2023-05-20T09:56:37.369Z,101575.69
2023-05-20T09:59:05.889Z,101568.53
2023-05-20T10:01:33.318Z,101570.22
2023-05-20T10:04:01.937Z,101570.38
2023-05-20T10:06:56.229Z,101560.47
2023-05-20T10:09:45.887Z,101566.19
2023-05-20T10:12:45.564Z,101570.31
2023-05-20T10:15:31.199Z,101577.84
2023-05-20T10:18:15.467Z,101559.88
2023-05-20T10:20:48.147Z,101548.19
2023-05-20T10:23:29.147Z,101559.72
2023-05-20T10:28:33.175Z,101557.50
2023-05-20T10:31:01.058Z,101566.06
2023-05-20T10:33:29.803Z,101547.78
2023-05-20T10:36:01.213Z,101558.28
2023-05-20T10:38:28.805Z,101553.09
2023-05-20T10:40:57.510Z,101543.94
2023-05-20T10:43:29.312Z,101544.81
2023-05-20T10:45:58.342Z,101540.19
2023-05-20T10:48:29.104Z,101550.94
2023-05-20T10:50:58.284Z,101551.16
2023-05-20T10:53:33.582Z,101542.09
2023-05-20T10:56:03.156Z,101528.25
2023-05-20T10:58:38.469Z,101533.28
2023-05-20T11:01:06.699Z,101540.69
2023-05-20T11:03:36.393Z,101540.97
2023-05-20T11:06:16.140Z,101540.06
2023-05-20T11:08:46.424Z,101538.03
2023-05-20T11:11:15.444Z,101526.41
2023-05-20T11:13:43.161Z,101533.38
2023-05-20T11:16:11.102Z,101526.97
2023-05-20T11:18:38.679Z,101534.31
2023-05-20T11:21:06.738Z,101540.06
2023-05-20T11:23:34.252Z,101522.28
2023-05-20T11:26:01.772Z,101520.56
2023-05-20T11:28:31.006Z,101517.53
2023-05-20T11:30:59.811Z,101514.31
2023-05-20T11:33:27.715Z,101504.72
2023-05-20T11:35:55.500Z,101523.59
2023-05-20T11:38:22.978Z,101514.31
2023-05-20T11:40:55.319Z,101504.22
2023-05-20T11:43:24.427Z,101515.09
2023-05-20T11:45:59.437Z,101495.78
2023-05-20T11:48:27.311Z,101488.75
2023-05-20T11:50:56.441Z,101491.44
2023-05-20T11:53:24.605Z,101489.47
2023-05-20T11:56:00.023Z,101485.50
2023-05-20T11:58:31.447Z,101477.50
2023-05-20T12:01:05.762Z,101480.63
2023-05-20T12:03:41.681Z,101479.66
2023-05-20T12:06:12.153Z,101480.47
2023-05-20T12:08:39.668Z,101472.56
2023-05-20T12:11:07.237Z,101471.69
2023-05-20T12:13:35.549Z,101469.75
2023-05-20T12:16:05.821Z,101481.06
2023-05-20T12:18:33.551Z,101477.72
2023-05-20T12:21:01.421Z,101474.19
2023-05-20T12:23:30.869Z,101476.94
2023-05-20T12:25:58.381Z,101462.31
2023-05-20T12:28:26.180Z,101463.41
2023-05-20T12:30:53.608Z,101461.53
2023-05-20T12:33:21.338Z,101460.66
2023-05-20T12:35:48.747Z,101473.91
2023-05-20T12:38:16.354Z,101461.97
2023-05-20T12:40:44.193Z,101469.03
2023-05-20T12:43:11.658Z,101465.06
2023-05-20T12:45:39.072Z,101484.53
2023-05-20T12:48:08.118Z,101470.13
2023-05-20T12:50:35.887Z,101469.28
2023-05-20T12:53:03.786Z,101453.97
2023-05-20T12:55:31.309Z,101467.22
2023-05-20T12:57:58.777Z,101457.28
2023-05-20T13:00:26.199Z,101457.81
2023-05-20T13:02:54.887Z,101451.47
2023-05-20T13:05:23.093Z,101444.78
2023-05-20T13:07:50.797Z,101459.72
2023-05-20T13:10:18.798Z,101444.75
2023-05-20T13:12:46.593Z,101439.00
2023-05-20T13:15:17.020Z,101434.81
2023-05-20T13:17:44.837Z,101431.31
2023-05-20T13:20:13.135Z,101447.47
2023-05-20T13:22:40.872Z,101437.09
2023-05-20T13:25:09.619Z,101435.66
2023-05-20T13:27:37.888Z,101430.09
2023-05-20T13:30:06.949Z,101432.53
2023-05-20T13:32:34.540Z,101429.91
2023-05-20T13:35:07.873Z,101429.47
2023-05-20T13:37:37.129Z,101433.03
2023-05-20T13:40:04.914Z,101433.16
2023-05-20T13:42:32.480Z,101437.56
2023-05-20T13:44:59.898Z,101429.56
2023-05-20T13:47:27.549Z,101416.19
2023-05-20T13:49:55.270Z,101415.16
2023-05-20T13:52:22.870Z,101411.50
2023-05-20T13:54:50.312Z,101412.91
2023-05-20T13:57:17.816Z,101426.19
2023-05-20T13:59:45.337Z,101409.31
2023-05-20T14:02:12.998Z,101408.47
2023-05-20T14:04:41.126Z,101402.81
2023-05-20T14:07:10.032Z,101421.19
2023-05-20T14:09:37.944Z,101408.22
2023-05-20T14:12:06.446Z,101398.59
2023-05-20T14:14:34.300Z,101405.66
2023-05-20T14:17:01.878Z,101394.91
2023-05-20T14:19:30.261Z,101393.75
2023-05-20T14:22:01.178Z,101390.81
2023-05-20T14:24:29.127Z,101395.28
2023-05-20T14:26:56.739Z,101378.53
2023-05-20T14:29:24.351Z,101387.03
2023-05-20T14:31:51.777Z,101377.00
2023-05-20T14:34:19.285Z,101374.28
2023-05-20T14:36:47.121Z,101370.25
2023-05-20T14:39:14.751Z,101375.63
2023-05-20T14:41:42.173Z,101382.66
2023-05-20T14:44:09.677Z,101390.00
2023-05-20T14:46:37.225Z,101384.59
2023-05-20T14:49:05.094Z,101387.25
2023-05-20T14:51:32.696Z,101383.84
2023-05-20T14:54:00.239Z,101375.66
2023-05-20T14:56:27.694Z,101390.50
2023-05-20T14:58:55.150Z,101385.84
2023-05-20T15:01:22.727Z,101384.63
2023-05-20T15:03:50.369Z,101374.50
2023-05-20T15:06:17.939Z,101379.41
2023-05-20T15:08:45.576Z,101383.34
2023-05-20T15:11:13.063Z,101369.59
2023-05-20T15:13:40.965Z,101379.56
2023-05-20T15:16:08.457Z,101370.59
2023-05-20T15:18:37.171Z,101378.91
2023-05-20T15:21:04.978Z,101380.28
2023-05-20T15:23:32.403Z,101375.16
2023-05-20T15:25:59.922Z,101383.41
2023-05-20T15:28:27.481Z,101374.06
2023-05-20T15:30:56.505Z,101369.78
2023-05-20T15:33:24.265Z,101356.78
2023-05-20T15:35:52.002Z,101360.94
2023-05-20T15:38:19.535Z,101352.84
2023-05-20T15:40:47.520Z,101335.69
2023-05-20T15:43:15.236Z,101350.81
2023-05-20T15:45:43.078Z,101339.31
2023-05-20T15:48:11.680Z,101356.84
2023-05-20T15:50:39.243Z,101346.72
2023-05-20T15:53:08.085Z,101340.75
2023-05-20T15:55:35.879Z,101340.81
2023-05-20T15:58:03.383Z,101339.03
2023-05-20T16:00:31.536Z,101335.28
2023-05-20T16:02:59.451Z,101340.34
2023-05-20T16:05:27.099Z,101336.03
2023-05-20T16:07:55.301Z,101336.94
2023-05-20T16:10:25.311Z,101342.09
2023-05-20T16:12:53.632Z,101332.91
2023-05-20T16:15:21.131Z,101332.91
2023-05-20T16:17:48.819Z,101336.31
2023-05-20T16:20:16.438Z,101338.88
2023-05-20T16:22:43.967Z,101334.38
2023-05-20T16:25:11.376Z,101335.44
2023-05-20T16:27:39.033Z,101329.41
2023-05-20T16:30:08.280Z,101340.09
2023-05-20T16:32:35.802Z,101347.13
2023-05-20T16:35:03.478Z,101342.91
2023-05-20T16:37:31.019Z,101343.22
2023-05-20T16:39:58.730Z,101346.16
2023-05-20T16:42:26.314Z,101335.81
2023-05-20T16:44:54.290Z,101345.25
2023-05-20T16:47:21.946Z,101336.16
2023-05-20T16:49:49.481Z,101332.06
2023-05-20T16:52:17.080Z,101333.97
2023-05-20T16:54:45.008Z,101337.56
2023-05-20T16:57:14.253Z,101341.88
2023-05-20T16:59:41.911Z,101345.41
2023-05-20T17:02:09.590Z,101340.09
2023-05-20T17:04:37.279Z,101339.16
2023-05-20T17:07:05.159Z,101340.81
2023-05-20T17:09:32.567Z,101341.41
2023-05-20T17:12:00.126Z,101335.59
2023-05-20T17:14:27.744Z,101347.91
2023-05-20T17:16:55.447Z,101342.06
2023-05-20T17:19:23.226Z,101333.31
2023-05-20T17:21:50.934Z,101335.81
2023-05-20T17:24:18.316Z,101346.53
2023-05-20T17:26:45.786Z,101335.16
2023-05-20T17:29:13.590Z,101345.00
2023-05-20T17:31:41.385Z,101339.63
2023-05-20T17:34:08.932Z,101344.75
2023-05-20T17:36:36.628Z,101343.88
2023-05-20T17:39:04.728Z,101336.63
2023-05-20T17:41:32.307Z,101339.28
2023-05-20T17:44:01.559Z,101333.78
2023-05-20T17:46:29.094Z,101337.31
2023-05-20T17:48:56.927Z,101332.81
2023-05-20T17:51:24.424Z,101334.69
2023-05-20T17:53:51.924Z,101348.78
2023-05-20T17:56:19.417Z,101343.41
2023-05-20T17:58:47.049Z,101347.06
2023-05-20T18:01:15.245Z,101350.72
2023-05-20T18:03:42.886Z,101343.66
2023-05-20T18:06:10.848Z,101345.69
2023-05-20T18:08:38.329Z,101350.06
2023-05-20T18:11:06.062Z,101354.44
2023-05-20T18:13:33.541Z,101354.38
2023-05-20T18:16:01.341Z,101359.75
2023-05-20T18:18:28.834Z,101358.09
2023-05-20T18:20:56.351Z,101356.44
2023-05-20T18:23:23.815Z,101361.94
2023-05-20T18:25:51.307Z,101364.59
2023-05-20T18:28:18.771Z,101373.44
2023-05-20T18:30:46.279Z,101369.13
2023-05-20T18:33:13.829Z,101370.97
2023-05-20T18:35:41.433Z,101364.72
2023-05-20T18:38:08.843Z,101372.75
2023-05-20T18:40:36.794Z,101368.34
2023-05-20T18:43:04.617Z,101373.72
2023-05-20T18:45:32.156Z,101367.84
2023-05-20T18:48:00.332Z,101369.69
2023-05-20T18:50:27.914Z,101365.25
2023-05-20T18:52:55.390Z,101368.66
2023-05-20T18:55:24.160Z,101374.03
2023-05-20T18:57:52.003Z,101381.06
2023-05-20T19:00:19.945Z,101375.88
2023-05-20T19:02:47.433Z,101370.59
2023-05-20T19:05:15.051Z,101380.16
2023-05-20T19:07:42.500Z,101372.28
2023-05-20T19:10:10.410Z,101374.22
2023-05-20T19:12:37.949Z,101376.94
2023-05-20T19:15:06.051Z,101372.59
2023-05-20T19:17:33.532Z,101378.78
2023-05-20T19:20:01.024Z,101376.06
2023-05-20T19:22:28.416Z,101374.28
2023-05-20T19:24:56.133Z,101377.00
2023-05-20T19:27:23.600Z,101373.63
2023-05-20T19:29:51.418Z,101383.50
2023-05-20T19:32:18.897Z,101385.97
2023-05-20T19:34:46.468Z,101382.56
2023-05-20T19:37:13.916Z,101385.22
2023-05-20T19:39:41.630Z,101380.84
2023-05-20T19:42:09.121Z,101387.06
2023-05-20T19:44:36.580Z,101382.69
2023-05-20T19:47:05.754Z,101389.78
2023-05-20T19:49:33.364Z,101394.31
2023-05-20T19:52:00.767Z,101389.91
2023-05-20T19:54:28.305Z,101389.13
2023-05-20T19:56:55.921Z,101382.13
2023-05-20T19:59:23.565Z,101383.91
2023-05-20T20:01:51.633Z,101386.47
2023-05-20T20:04:19.470Z,101385.72
2023-05-20T20:06:48.165Z,101395.44
2023-05-20T20:09:15.747Z,101395.47
2023-05-20T20:11:43.441Z,101399.84
2023-05-20T20:14:11.169Z,101405.16
2023-05-20T20:16:38.713Z,101413.97
2023-05-20T20:19:06.296Z,101407.88
2023-05-20T20:21:33.797Z,101411.41
2023-05-20T20:24:01.536Z,101417.59
2023-05-20T20:26:30.629Z,101406.25
2023-05-20T20:28:58.128Z,101417.69
2023-05-20T20:31:26.575Z,101412.44
2023-05-20T20:33:54.035Z,101416.81
2023-05-20T20:36:21.413Z,101417.72
2023-05-20T20:38:48.870Z,101421.22
2023-05-20T20:41:16.842Z,101422.09
2023-05-20T20:43:47.767Z,101423.03
2023-05-20T20:46:15.276Z,101435.31
2023-05-20T20:48:45.908Z,101433.53
2023-05-20T20:51:14.652Z,101436.13
2023-05-20T20:53:42.964Z,101430.84
2023-05-20T20:56:10.592Z,101428.22
2023-05-20T20:58:39.212Z,101428.25
2023-05-20T21:01:07.178Z,101428.28
2023-05-20T21:03:34.688Z,101426.53
2023-05-20T21:06:02.205Z,101434.47
2023-05-20T21:08:30.580Z,101429.19
2023-05-20T21:10:59.544Z,101428.34
2023-05-20T21:13:27.790Z,101421.34
2023-05-20T21:15:55.330Z,101424.84
2023-05-20T21:18:23.967Z,101422.22
2023-05-20T21:20:52.809Z,101417.81
2023-05-20T21:23:21.297Z,101422.22
2023-05-20T21:25:49.262Z,101421.34
2023-05-20T21:28:16.831Z,101418.69
2023-05-20T21:30:45.226Z,101425.69
2023-05-20T21:33:12.896Z,101419.56
2023-05-20T21:35:40.522Z,101415.19
2023-05-20T21:38:08.158Z,101415.19
2023-05-20T21:40:35.832Z,101405.53
2023-05-20T21:43:03.581Z,101405.53
2023-05-20T21:45:31.531Z,101398.53
2023-05-20T21:47:59.256Z,101398.53
2023-05-20T21:50:27.129Z,101399.41
2023-05-20T21:52:54.714Z,101402.91
2023-05-20T21:55:23.886Z,101395.03
2023-05-20T21:57:51.350Z,101397.66
2023-05-20T22:00:19.355Z,101395.00
2023-05-20T22:02:47.250Z,101395.00
2023-05-20T22:05:15.360Z,101398.50
2023-05-20T22:07:44.604Z,101392.38
2023-05-20T22:10:13.781Z,101395.00
2023-05-20T22:12:44.099Z,101394.13
2023-05-20T22:15:12.867Z,101395.88
2023-05-20T22:17:41.098Z,101390.59
2023-05-20T22:20:10.577Z,101385.34
2023-05-20T22:22:41.727Z,101382.69
2023-05-20T22:25:09.790Z,101384.44
2023-05-20T22:27:37.340Z,101383.56
2023-05-20T22:30:08.293Z,101373.94
2023-05-20T22:32:35.914Z,101373.88
2023-05-20T22:35:03.799Z,101373.00
2023-05-20T22:37:31.418Z,101377.44
2023-05-20T22:39:58.823Z,101375.69
2023-05-20T22:42:26.380Z,101385.31
2023-05-20T22:44:54.024Z,101378.31
2023-05-20T22:47:21.589Z,101381.72
2023-05-20T22:49:49.047Z,101379.13
2023-05-20T22:52:16.571Z,101374.72
2023-05-20T22:54:44.110Z,101373.88
2023-05-20T22:57:12.252Z,101375.59
2023-05-20T22:59:40.503Z,101373.03
2023-05-20T23:02:08.280Z,101368.59
2023-05-20T23:04:35.881Z,101366.03
2023-05-20T23:07:03.625Z,101375.59
2023-05-20T23:09:31.439Z,101370.31
2023-05-20T23:11:58.964Z,101366.81
2023-05-20T23:14:26.411Z,101371.19
2023-05-20T23:16:54.108Z,101372.88
2023-05-20T23:19:21.631Z,101379.88
2023-05-20T23:21:49.131Z,101374.66
2023-05-20T23:24:16.836Z,101379.91
2023-05-20T23:26:44.457Z,101379.03
2023-05-20T23:29:11.943Z,101377.28
2023-05-20T23:31:40.044Z,101361.53
2023-05-20T23:34:08.059Z,101375.56
2023-05-20T23:36:35.600Z,101376.41
2023-05-20T23:39:03.656Z,101372.84
2023-05-20T23:41:31.195Z,101370.16
2023-05-20T23:43:58.655Z,101364.03
2023-05-20T23:46:26.108Z,101364.13
2023-05-20T23:48:53.802Z,101361.34
2023-05-20T23:51:21.253Z,101359.59
2023-05-20T23:53:48.889Z,101357.00
2023-05-20T23:56:16.385Z,101363.06
2023-05-20T23:58:43.803Z,101353.38
